sensor_id;sensor_type;location;lat;lon;timestamp;P1;durP1;ratioP1;P2;durP2;ratioP2
70780;SDS011;59514;48.810;2.134;2022-08-16T00:00:24;11.40;;;10.50;;
70780;SDS011;59514;48.810;2.134;2022-08-16T00:02:51;12.23;;;11.30;;
70780;SDS011;59514;48.810;2.134;2022-08-16T00:05:18;12.43;;;11.23;;
70780;SDS011;59514;48.810;2.134;2022-08-16T00:07:44;13.05;;;11.75;;
70780;SDS011;59514;48.810;2.134;2022-08-16T00:10:11;12.77;;;11.50;;
70780;SDS011;59514;48.810;2.134;2022-08-16T00:12:38;13.13;;;11.18;;
70780;SDS011;59514;48.810;2.134;2022-08-16T00:15:09;12.45;;;11.35;;
70780;SDS011;59514;48.810;2.134;2022-08-16T00:17:38;12.00;;;10.98;;
70780;SDS011;59514;48.810;2.134;2022-08-16T00:20:04;12.27;;;11.27;;
70780;SDS011;59514;48.810;2.134;2022-08-16T00:22:33;12.70;;;11.27;;
70780;SDS011;59514;48.810;2.134;2022-08-16T00:24:59;14.13;;;11.88;;
70780;SDS011;59514;48.810;2.134;2022-08-16T00:27:24;12.20;;;11.18;;
70780;SDS011;59514;48.810;2.134;2022-08-16T00:29:50;13.20;;;12.10;;
70780;SDS011;59514;48.810;2.134;2022-08-16T00:32:16;12.00;;;11.10;;
70780;SDS011;59514;48.810;2.134;2022-08-16T00:34:42;12.60;;;11.45;;
70780;SDS011;59514;48.810;2.134;2022-08-16T00:37:07;12.27;;;11.13;;
70780;SDS011;59514;48.810;2.134;2022-08-16T00:39:33;12.02;;;11.13;;
70780;SDS011;59514;48.810;2.134;2022-08-16T00:41:59;12.90;;;11.57;;
70780;SDS011;59514;48.810;2.134;2022-08-16T00:44:24;12.60;;;11.40;;
70780;SDS011;59514;48.810;2.134;2022-08-16T00:46:52;12.20;;;11.10;;
70780;SDS011;59514;48.810;2.134;2022-08-16T00:49:21;12.38;;;11.38;;
70780;SDS011;59514;48.810;2.134;2022-08-16T00:51:48;12.40;;;11.40;;
70780;SDS011;59514;48.810;2.134;2022-08-16T00:54:15;13.52;;;12.32;;
70780;SDS011;59514;48.810;2.134;2022-08-16T00:56:42;13.18;;;11.85;;
70780;SDS011;59514;48.810;2.134;2022-08-16T00:59:10;12.93;;;11.85;;
70780;SDS011;59514;48.810;2.134;2022-08-16T01:01:36;12.57;;;11.50;;
70780;SDS011;59514;48.810;2.134;2022-08-16T01:04:03;12.20;;;11.30;;
70780;SDS011;59514;48.810;2.134;2022-08-16T01:06:31;12.32;;;11.23;;
70780;SDS011;59514;48.810;2.134;2022-08-16T01:08:58;12.48;;;11.48;;
70780;SDS011;59514;48.810;2.134;2022-08-16T01:11:29;12.65;;;11.63;;
70780;SDS011;59514;48.810;2.134;2022-08-16T01:13:55;12.02;;;11.13;;
70780;SDS011;59514;48.810;2.134;2022-08-16T01:16:43;12.90;;;11.65;;
70780;SDS011;59514;48.810;2.134;2022-08-16T01:19:13;12.75;;;11.68;;
70780;SDS011;59514;48.810;2.134;2022-08-16T01:24:17;12.77;;;11.55;;
70780;SDS011;59514;48.810;2.134;2022-08-16T01:26:46;12.55;;;11.43;;
70780;SDS011;59514;48.810;2.134;2022-08-16T01:29:17;12.10;;;11.05;;
70780;SDS011;59514;48.810;2.134;2022-08-16T01:31:48;12.23;;;11.15;;
70780;SDS011;59514;48.810;2.134;2022-08-16T01:34:13;12.02;;;10.85;;
70780;SDS011;59514;48.810;2.134;2022-08-16T01:36:39;12.23;;;11.07;;
70780;SDS011;59514;48.810;2.134;2022-08-16T01:39:13;11.50;;;10.52;;
70780;SDS011;59514;48.810;2.134;2022-08-16T01:41:40;11.55;;;10.52;;
70780;SDS011;59514;48.810;2.134;2022-08-16T01:44:06;12.15;;;10.93;;
70780;SDS011;59514;48.810;2.134;2022-08-16T01:46:42;10.40;;;9.43;;
70780;SDS011;59514;48.810;2.134;2022-08-16T01:49:14;11.68;;;10.27;;
70780;SDS011;59514;48.810;2.134;2022-08-16T01:51:41;11.88;;;10.73;;
70780;SDS011;59514;48.810;2.134;2022-08-16T01:54:09;11.85;;;10.80;;
70780;SDS011;59514;48.810;2.134;2022-08-16T01:56:35;12.05;;;11.05;;
70780;SDS011;59514;48.810;2.134;2022-08-16T01:59:02;11.40;;;10.50;;
70780;SDS011;59514;48.810;2.134;2022-08-16T02:01:29;11.73;;;10.93;;
70780;SDS011;59514;48.810;2.134;2022-08-16T02:03:55;11.40;;;10.50;;
70780;SDS011;59514;48.810;2.134;2022-08-16T02:06:21;11.85;;;10.75;;
70780;SDS011;59514;48.810;2.134;2022-08-16T02:08:47;11.80;;;10.65;;
70780;SDS011;59514;48.810;2.134;2022-08-16T02:11:12;11.73;;;10.90;;
70780;SDS011;59514;48.810;2.134;2022-08-16T02:13:38;12.63;;;11.32;;
70780;SDS011;59514;48.810;2.134;2022-08-16T02:16:09;12.40;;;11.30;;
70780;SDS011;59514;48.810;2.134;2022-08-16T02:18:35;12.50;;;11.40;;
70780;SDS011;59514;48.810;2.134;2022-08-16T02:21:01;11.48;;;10.57;;
70780;SDS011;59514;48.810;2.134;2022-08-16T02:23:28;11.85;;;10.75;;
70780;SDS011;59514;48.810;2.134;2022-08-16T02:25:53;11.57;;;10.60;;
70780;SDS011;59514;48.810;2.134;2022-08-16T02:28:19;11.20;;;10.27;;
70780;SDS011;59514;48.810;2.134;2022-08-16T02:30:45;11.80;;;10.63;;
70780;SDS011;59514;48.810;2.134;2022-08-16T02:33:11;11.30;;;10.35;;
70780;SDS011;59514;48.810;2.134;2022-08-16T02:35:37;12.48;;;11.45;;
70780;SDS011;59514;48.810;2.134;2022-08-16T02:38:03;10.98;;;10.20;;
70780;SDS011;59514;48.810;2.134;2022-08-16T02:40:29;10.98;;;10.15;;
70780;SDS011;59514;48.810;2.134;2022-08-16T02:42:54;11.10;;;10.10;;
70780;SDS011;59514;48.810;2.134;2022-08-16T02:45:21;10.85;;;9.90;;
70780;SDS011;59514;48.810;2.134;2022-08-16T02:47:48;11.05;;;10.15;;
70780;SDS011;59514;48.810;2.134;2022-08-16T02:50:14;11.38;;;10.48;;
70780;SDS011;59514;48.810;2.134;2022-08-16T02:52:39;11.35;;;10.38;;
70780;SDS011;59514;48.810;2.134;2022-08-16T02:55:05;11.30;;;10.40;;
70780;SDS011;59514;48.810;2.134;2022-08-16T02:57:32;10.55;;;9.57;;
70780;SDS011;59514;48.810;2.134;2022-08-16T02:59:57;11.05;;;10.10;;
70780;SDS011;59514;48.810;2.134;2022-08-16T03:02:24;11.30;;;10.40;;
70780;SDS011;59514;48.810;2.134;2022-08-16T03:04:49;10.68;;;9.75;;
70780;SDS011;59514;48.810;2.134;2022-08-16T03:07:15;10.85;;;9.93;;
70780;SDS011;59514;48.810;2.134;2022-08-16T03:09:40;11.60;;;10.60;;
70780;SDS011;59514;48.810;2.134;2022-08-16T03:12:06;11.07;;;10.10;;
70780;SDS011;59514;48.810;2.134;2022-08-16T03:14:31;11.48;;;10.60;;
70780;SDS011;59514;48.810;2.134;2022-08-16T03:16:58;11.23;;;10.32;;
70780;SDS011;59514;48.810;2.134;2022-08-16T03:19:24;11.95;;;10.85;;
70780;SDS011;59514;48.810;2.134;2022-08-16T03:21:50;11.45;;;10.45;;
70780;SDS011;59514;48.810;2.134;2022-08-16T03:24:15;11.05;;;10.15;;
70780;SDS011;59514;48.810;2.134;2022-08-16T03:26:41;11.48;;;10.48;;
70780;SDS011;59514;48.810;2.134;2022-08-16T03:29:06;11.75;;;10.70;;
70780;SDS011;59514;48.810;2.134;2022-08-16T03:31:31;14.20;;;10.13;;
70780;SDS011;59514;48.810;2.134;2022-08-16T03:33:57;11.57;;;10.60;;
70780;SDS011;59514;48.810;2.134;2022-08-16T03:36:23;12.38;;;11.18;;
70780;SDS011;59514;48.810;2.134;2022-08-16T03:38:48;11.00;;;10.20;;
70780;SDS011;59514;48.810;2.134;2022-08-16T03:41:14;11.77;;;10.63;;
70780;SDS011;59514;48.810;2.134;2022-08-16T03:43:40;11.90;;;10.70;;
70780;SDS011;59514;48.810;2.134;2022-08-16T03:46:06;10.60;;;9.70;;
70780;SDS011;59514;48.810;2.134;2022-08-16T03:48:33;11.18;;;10.27;;
70780;SDS011;59514;48.810;2.134;2022-08-16T03:51:01;11.10;;;10.18;;
70780;SDS011;59514;48.810;2.134;2022-08-16T03:53:28;14.00;;;10.15;;
70780;SDS011;59514;48.810;2.134;2022-08-16T03:55:53;10.25;;;9.38;;
70780;SDS011;59514;48.810;2.134;2022-08-16T03:58:19;9.95;;;8.95;;
70780;SDS011;59514;48.810;2.134;2022-08-16T04:00:44;10.52;;;9.48;;
70780;SDS011;59514;48.810;2.134;2022-08-16T04:03:10;10.63;;;9.27;;
70780;SDS011;59514;48.810;2.134;2022-08-16T04:05:37;10.60;;;9.77;;
70780;SDS011;59514;48.810;2.134;2022-08-16T04:08:05;10.15;;;9.25;;
70780;SDS011;59514;48.810;2.134;2022-08-16T04:10:31;10.43;;;9.43;;
70780;SDS011;59514;48.810;2.134;2022-08-16T04:12:57;9.45;;;8.75;;
70780;SDS011;59514;48.810;2.134;2022-08-16T04:15:23;10.73;;;8.95;;
70780;SDS011;59514;48.810;2.134;2022-08-16T04:17:50;9.75;;;8.90;;
70780;SDS011;59514;48.810;2.134;2022-08-16T04:20:15;10.13;;;9.27;;
70780;SDS011;59514;48.810;2.134;2022-08-16T04:22:41;9.95;;;9.15;;
70780;SDS011;59514;48.810;2.134;2022-08-16T04:25:08;9.68;;;8.82;;
70780;SDS011;59514;48.810;2.134;2022-08-16T04:27:34;10.10;;;9.38;;
70780;SDS011;59514;48.810;2.134;2022-08-16T04:30:00;10.25;;;9.20;;
70780;SDS011;59514;48.810;2.134;2022-08-16T04:32:26;9.82;;;8.93;;
70780;SDS011;59514;48.810;2.134;2022-08-16T04:34:51;9.82;;;9.00;;
70780;SDS011;59514;48.810;2.134;2022-08-16T04:37:17;9.95;;;8.95;;
70780;SDS011;59514;48.810;2.134;2022-08-16T04:39:42;10.38;;;9.38;;
70780;SDS011;59514;48.810;2.134;2022-08-16T04:42:07;9.23;;;8.43;;
70780;SDS011;59514;48.810;2.134;2022-08-16T04:44:33;10.13;;;9.33;;
70780;SDS011;59514;48.810;2.134;2022-08-16T04:46:58;10.05;;;9.13;;
70780;SDS011;59514;48.810;2.134;2022-08-16T04:49:24;11.13;;;9.23;;
70780;SDS011;59514;48.810;2.134;2022-08-16T04:51:50;11.07;;;9.05;;
70780;SDS011;59514;48.810;2.134;2022-08-16T04:54:16;9.82;;;8.93;;
70780;SDS011;59514;48.810;2.134;2022-08-16T04:56:41;10.38;;;9.38;;
70780;SDS011;59514;48.810;2.134;2022-08-16T04:59:07;10.07;;;9.15;;
70780;SDS011;59514;48.810;2.134;2022-08-16T05:01:34;8.52;;;7.72;;
70780;SDS011;59514;48.810;2.134;2022-08-16T05:04:00;9.25;;;8.35;;
70780;SDS011;59514;48.810;2.134;2022-08-16T05:06:25;8.68;;;7.72;;
70780;SDS011;59514;48.810;2.134;2022-08-16T05:08:51;10.05;;;8.25;;
70780;SDS011;59514;48.810;2.134;2022-08-16T05:11:16;8.93;;;8.13;;
70780;SDS011;59514;48.810;2.134;2022-08-16T05:13:44;10.40;;;9.32;;
70780;SDS011;59514;48.810;2.134;2022-08-16T05:16:12;9.10;;;8.18;;
70780;SDS011;59514;48.810;2.134;2022-08-16T05:18:49;8.75;;;7.95;;
70780;SDS011;59514;48.810;2.134;2022-08-16T05:21:16;9.52;;;8.57;;
70780;SDS011;59514;48.810;2.134;2022-08-16T05:23:42;9.55;;;8.23;;
70780;SDS011;59514;48.810;2.134;2022-08-16T05:26:07;10.10;;;8.55;;
70780;SDS011;59514;48.810;2.134;2022-08-16T05:28:33;8.80;;;8.00;;
70780;SDS011;59514;48.810;2.134;2022-08-16T05:30:58;9.30;;;8.30;;
70780;SDS011;59514;48.810;2.134;2022-08-16T05:33:23;8.98;;;8.18;;
70780;SDS011;59514;48.810;2.134;2022-08-16T05:35:50;8.48;;;7.78;;
70780;SDS011;59514;48.810;2.134;2022-08-16T05:38:15;9.25;;;8.30;;
70780;SDS011;59514;48.810;2.134;2022-08-16T05:40:41;8.77;;;8.00;;
70780;SDS011;59514;48.810;2.134;2022-08-16T05:43:06;9.43;;;8.52;;
70780;SDS011;59514;48.810;2.134;2022-08-16T05:45:32;8.02;;;7.32;;
70780;SDS011;59514;48.810;2.134;2022-08-16T05:47:57;8.40;;;7.28;;
70780;SDS011;59514;48.810;2.134;2022-08-16T05:50:23;9.60;;;7.55;;
70780;SDS011;59514;48.810;2.134;2022-08-16T05:52:48;8.48;;;7.43;;
70780;SDS011;59514;48.810;2.134;2022-08-16T05:55:14;8.32;;;7.35;;
70780;SDS011;59514;48.810;2.134;2022-08-16T05:57:39;8.57;;;7.70;;
70780;SDS011;59514;48.810;2.134;2022-08-16T06:00:06;8.60;;;7.80;;
70780;SDS011;59514;48.810;2.134;2022-08-16T06:02:36;8.60;;;7.80;;
70780;SDS011;59514;48.810;2.134;2022-08-16T06:05:02;7.68;;;7.07;;
70780;SDS011;59514;48.810;2.134;2022-08-16T06:07:28;8.13;;;7.53;;
70780;SDS011;59514;48.810;2.134;2022-08-16T06:09:54;9.05;;;8.30;;
70780;SDS011;59514;48.810;2.134;2022-08-16T06:12:22;8.75;;;7.93;;
70780;SDS011;59514;48.810;2.134;2022-08-16T06:14:47;8.57;;;7.78;;
70780;SDS011;59514;48.810;2.134;2022-08-16T06:17:13;8.43;;;7.68;;
70780;SDS011;59514;48.810;2.134;2022-08-16T06:19:40;8.82;;;7.70;;
70780;SDS011;59514;48.810;2.134;2022-08-16T06:22:06;9.27;;;8.35;;
70780;SDS011;59514;48.810;2.134;2022-08-16T06:24:32;8.15;;;7.35;;
70780;SDS011;59514;48.810;2.134;2022-08-16T06:26:57;8.13;;;7.32;;
70780;SDS011;59514;48.810;2.134;2022-08-16T06:29:22;7.65;;;7.03;;
70780;SDS011;59514;48.810;2.134;2022-08-16T06:31:48;7.70;;;7.10;;
70780;SDS011;59514;48.810;2.134;2022-08-16T06:34:13;9.20;;;7.32;;
70780;SDS011;59514;48.810;2.134;2022-08-16T06:36:39;7.35;;;6.65;;
70780;SDS011;59514;48.810;2.134;2022-08-16T06:39:06;10.45;;;7.60;;
70780;SDS011;59514;48.810;2.134;2022-08-16T06:41:31;7.97;;;7.18;;
70780;SDS011;59514;48.810;2.134;2022-08-16T06:43:57;7.93;;;7.22;;
70780;SDS011;59514;48.810;2.134;2022-08-16T06:46:27;9.10;;;8.00;;
70780;SDS011;59514;48.810;2.134;2022-08-16T06:48:58;9.38;;;7.40;;
70780;SDS011;59514;48.810;2.134;2022-08-16T06:51:24;8.43;;;6.47;;
70780;SDS011;59514;48.810;2.134;2022-08-16T06:53:50;8.05;;;7.32;;
70780;SDS011;59514;48.810;2.134;2022-08-16T06:56:15;7.28;;;6.53;;
70780;SDS011;59514;48.810;2.134;2022-08-16T06:58:40;7.82;;;6.97;;
70780;SDS011;59514;48.810;2.134;2022-08-16T07:01:06;7.78;;;6.70;;
70780;SDS011;59514;48.810;2.134;2022-08-16T07:03:31;7.90;;;6.68;;
70780;SDS011;59514;48.810;2.134;2022-08-16T07:05:57;8.45;;;7.25;;
70780;SDS011;59514;48.810;2.134;2022-08-16T07:08:23;9.00;;;7.10;;
70780;SDS011;59514;48.810;2.134;2022-08-16T07:10:49;7.63;;;6.93;;
70780;SDS011;59514;48.810;2.134;2022-08-16T07:13:15;7.57;;;6.85;;
70780;SDS011;59514;48.810;2.134;2022-08-16T07:15:41;9.23;;;7.25;;
70780;SDS011;59514;48.810;2.134;2022-08-16T07:18:07;7.32;;;6.22;;
70780;SDS011;59514;48.810;2.134;2022-08-16T07:20:35;7.85;;;6.95;;
70780;SDS011;59514;48.810;2.134;2022-08-16T07:23:01;7.47;;;6.70;;
70780;SDS011;59514;48.810;2.134;2022-08-16T07:25:26;7.35;;;6.65;;
70780;SDS011;59514;48.810;2.134;2022-08-16T07:27:52;7.95;;;7.15;;
70780;SDS011;59514;48.810;2.134;2022-08-16T07:30:17;8.38;;;6.57;;
70780;SDS011;59514;48.810;2.134;2022-08-16T07:32:43;8.50;;;6.85;;
70780;SDS011;59514;48.810;2.134;2022-08-16T07:35:08;8.32;;;6.43;;
70780;SDS011;59514;48.810;2.134;2022-08-16T07:37:34;9.30;;;6.97;;
70780;SDS011;59514;48.810;2.134;2022-08-16T07:39:59;7.38;;;6.78;;
70780;SDS011;59514;48.810;2.134;2022-08-16T07:42:25;7.22;;;6.63;;
70780;SDS011;59514;48.810;2.134;2022-08-16T07:44:51;10.32;;;7.55;;
70780;SDS011;59514;48.810;2.134;2022-08-16T07:47:16;9.40;;;6.93;;
70780;SDS011;59514;48.810;2.134;2022-08-16T07:49:41;8.93;;;6.63;;
70780;SDS011;59514;48.810;2.134;2022-08-16T07:52:07;7.43;;;6.63;;
70780;SDS011;59514;48.810;2.134;2022-08-16T07:54:32;9.55;;;6.40;;
70780;SDS011;59514;48.810;2.134;2022-08-16T07:56:57;8.98;;;6.55;;
70780;SDS011;59514;48.810;2.134;2022-08-16T07:59:23;8.25;;;7.40;;
70780;SDS011;59514;48.810;2.134;2022-08-16T08:01:49;8.48;;;6.70;;
70780;SDS011;59514;48.810;2.134;2022-08-16T08:04:16;7.95;;;6.63;;
70780;SDS011;59514;48.810;2.134;2022-08-16T08:06:43;7.63;;;6.57;;
70780;SDS011;59514;48.810;2.134;2022-08-16T08:09:09;6.60;;;6.00;;
70780;SDS011;59514;48.810;2.134;2022-08-16T08:11:34;8.18;;;6.25;;
70780;SDS011;59514;48.810;2.134;2022-08-16T08:14:00;8.43;;;6.45;;
70780;SDS011;59514;48.810;2.134;2022-08-16T08:16:26;6.78;;;6.13;;
70780;SDS011;59514;48.810;2.134;2022-08-16T08:18:52;6.68;;;5.97;;
70780;SDS011;59514;48.810;2.134;2022-08-16T08:21:20;8.70;;;6.13;;
70780;SDS011;59514;48.810;2.134;2022-08-16T08:23:48;7.43;;;6.35;;
70780;SDS011;59514;48.810;2.134;2022-08-16T08:26:14;10.20;;;6.22;;
70780;SDS011;59514;48.810;2.134;2022-08-16T08:28:39;8.10;;;6.22;;
70780;SDS011;59514;48.810;2.134;2022-08-16T08:31:05;6.75;;;5.80;;
70780;SDS011;59514;48.810;2.134;2022-08-16T08:33:31;6.70;;;5.85;;
70780;SDS011;59514;48.810;2.134;2022-08-16T08:35:58;6.63;;;5.93;;
70780;SDS011;59514;48.810;2.134;2022-08-16T08:38:25;9.77;;;6.05;;
70780;SDS011;59514;48.810;2.134;2022-08-16T08:40:51;7.18;;;5.75;;
70780;SDS011;59514;48.810;2.134;2022-08-16T08:43:18;9.45;;;5.43;;
70780;SDS011;59514;48.810;2.134;2022-08-16T08:45:43;7.15;;;6.03;;
70780;SDS011;59514;48.810;2.134;2022-08-16T08:48:08;6.63;;;5.60;;
70780;SDS011;59514;48.810;2.134;2022-08-16T08:50:34;9.07;;;5.82;;
70780;SDS011;59514;48.810;2.134;2022-08-16T08:53:00;8.45;;;5.70;;
70780;SDS011;59514;48.810;2.134;2022-08-16T08:55:26;7.68;;;5.38;;
70780;SDS011;59514;48.810;2.134;2022-08-16T08:57:52;9.18;;;5.85;;
70780;SDS011;59514;48.810;2.134;2022-08-16T09:00:19;7.05;;;6.15;;
70780;SDS011;59514;48.810;2.134;2022-08-16T09:02:47;7.82;;;5.30;;
70780;SDS011;59514;48.810;2.134;2022-08-16T09:05:13;8.18;;;5.75;;
70780;SDS011;59514;48.810;2.134;2022-08-16T09:07:40;6.70;;;5.72;;
70780;SDS011;59514;48.810;2.134;2022-08-16T09:10:06;7.63;;;5.35;;
70780;SDS011;59514;48.810;2.134;2022-08-16T09:12:33;6.32;;;5.35;;
70780;SDS011;59514;48.810;2.134;2022-08-16T09:14:59;6.00;;;5.40;;
70780;SDS011;59514;48.810;2.134;2022-08-16T09:17:24;6.82;;;5.20;;
70780;SDS011;59514;48.810;2.134;2022-08-16T09:19:50;8.65;;;5.63;;
70780;SDS011;59514;48.810;2.134;2022-08-16T09:22:16;7.07;;;4.80;;
70780;SDS011;59514;48.810;2.134;2022-08-16T09:24:44;8.77;;;5.45;;
70780;SDS011;59514;48.810;2.134;2022-08-16T09:27:09;7.38;;;5.43;;
70780;SDS011;59514;48.810;2.134;2022-08-16T09:29:34;7.35;;;5.20;;
70780;SDS011;59514;48.810;2.134;2022-08-16T09:32:00;6.95;;;4.82;;
70780;SDS011;59514;48.810;2.134;2022-08-16T09:34:25;5.72;;;5.03;;
70780;SDS011;59514;48.810;2.134;2022-08-16T09:36:51;7.60;;;5.30;;
70780;SDS011;59514;48.810;2.134;2022-08-16T09:39:16;7.22;;;5.60;;
70780;SDS011;59514;48.810;2.134;2022-08-16T09:41:43;5.82;;;5.22;;
70780;SDS011;59514;48.810;2.134;2022-08-16T09:44:09;7.55;;;5.38;;
70780;SDS011;59514;48.810;2.134;2022-08-16T09:46:34;6.38;;;4.97;;
70780;SDS011;59514;48.810;2.134;2022-08-16T09:48:59;6.50;;;4.90;;
70780;SDS011;59514;48.810;2.134;2022-08-16T09:51:25;5.97;;;5.22;;
70780;SDS011;59514;48.810;2.134;2022-08-16T09:53:51;7.38;;;5.10;;
70780;SDS011;59514;48.810;2.134;2022-08-16T09:56:28;5.90;;;5.13;;
70780;SDS011;59514;48.810;2.134;2022-08-16T09:58:59;6.85;;;5.07;;
70780;SDS011;59514;48.810;2.134;2022-08-16T10:01:26;7.35;;;5.10;;
70780;SDS011;59514;48.810;2.134;2022-08-16T10:03:52;7.30;;;5.28;;
70780;SDS011;59514;48.810;2.134;2022-08-16T10:06:19;6.75;;;5.20;;
70780;SDS011;59514;48.810;2.134;2022-08-16T10:08:46;6.88;;;5.28;;
70780;SDS011;59514;48.810;2.134;2022-08-16T10:11:13;6.60;;;5.05;;
70780;SDS011;59514;48.810;2.134;2022-08-16T10:13:57;6.22;;;5.35;;
70780;SDS011;59514;48.810;2.134;2022-08-16T10:16:23;5.78;;;5.15;;
70780;SDS011;59514;48.810;2.134;2022-08-16T10:18:48;7.40;;;5.22;;
70780;SDS011;59514;48.810;2.134;2022-08-16T10:21:14;8.20;;;5.00;;
70780;SDS011;59514;48.810;2.134;2022-08-16T10:23:39;6.32;;;5.35;;
70780;SDS011;59514;48.810;2.134;2022-08-16T10:26:05;6.30;;;4.88;;
70780;SDS011;59514;48.810;2.134;2022-08-16T10:28:30;6.45;;;5.85;;
70780;SDS011;59514;48.810;2.134;2022-08-16T10:30:57;5.78;;;5.05;;
70780;SDS011;59514;48.810;2.134;2022-08-16T10:33:24;9.32;;;5.53;;
70780;SDS011;59514;48.810;2.134;2022-08-16T10:35:51;6.60;;;4.55;;
70780;SDS011;59514;48.810;2.134;2022-08-16T10:38:16;5.20;;;4.70;;
70780;SDS011;59514;48.810;2.134;2022-08-16T10:40:42;7.85;;;4.97;;
70780;SDS011;59514;48.810;2.134;2022-08-16T10:43:08;5.40;;;4.75;;
70780;SDS011;59514;48.810;2.134;2022-08-16T10:45:34;9.25;;;5.45;;
70780;SDS011;59514;48.810;2.134;2022-08-16T10:47:59;6.80;;;5.10;;
70780;SDS011;59514;48.810;2.134;2022-08-16T10:50:26;9.20;;;5.43;;
70780;SDS011;59514;48.810;2.134;2022-08-16T10:52:52;6.72;;;5.30;;
70780;SDS011;59514;48.810;2.134;2022-08-16T10:55:19;7.10;;;5.97;;
70780;SDS011;59514;48.810;2.134;2022-08-16T10:57:45;7.60;;;5.88;;
70780;SDS011;59514;48.810;2.134;2022-08-16T11:00:13;7.43;;;5.50;;
70780;SDS011;59514;48.810;2.134;2022-08-16T11:02:40;6.97;;;5.43;;
70780;SDS011;59514;48.810;2.134;2022-08-16T11:05:07;6.07;;;5.28;;
70780;SDS011;59514;48.810;2.134;2022-08-16T11:07:40;7.97;;;5.82;;
70780;SDS011;59514;48.810;2.134;2022-08-16T11:10:08;6.95;;;5.32;;
70780;SDS011;59514;48.810;2.134;2022-08-16T11:12:34;8.40;;;5.78;;
70780;SDS011;59514;48.810;2.134;2022-08-16T11:14:59;5.70;;;4.60;;
70780;SDS011;59514;48.810;2.134;2022-08-16T11:17:24;7.53;;;5.23;;
70780;SDS011;59514;48.810;2.134;2022-08-16T11:19:50;6.97;;;5.05;;
70780;SDS011;59514;48.810;2.134;2022-08-16T11:22:16;7.22;;;5.22;;
70780;SDS011;59514;48.810;2.134;2022-08-16T11:24:44;5.28;;;4.78;;
70780;SDS011;59514;48.810;2.134;2022-08-16T11:27:12;6.57;;;4.93;;
70780;SDS011;59514;48.810;2.134;2022-08-16T11:29:39;6.03;;;5.15;;
70780;SDS011;59514;48.810;2.134;2022-08-16T11:32:04;6.68;;;4.95;;
70780;SDS011;59514;48.810;2.134;2022-08-16T11:34:30;5.80;;;5.20;;
70780;SDS011;59514;48.810;2.134;2022-08-16T11:36:56;5.65;;;5.03;;
70780;SDS011;59514;48.810;2.134;2022-08-16T11:39:23;5.60;;;4.70;;
70780;SDS011;59514;48.810;2.134;2022-08-16T11:41:48;6.88;;;5.45;;
70780;SDS011;59514;48.810;2.134;2022-08-16T11:44:14;6.03;;;5.18;;
70780;SDS011;59514;48.810;2.134;2022-08-16T11:46:39;9.10;;;5.32;;
70780;SDS011;59514;48.810;2.134;2022-08-16T11:49:04;5.90;;;4.90;;
70780;SDS011;59514;48.810;2.134;2022-08-16T11:51:30;5.65;;;5.13;;
70780;SDS011;59514;48.810;2.134;2022-08-16T11:53:55;7.40;;;5.20;;
70780;SDS011;59514;48.810;2.134;2022-08-16T11:56:21;7.72;;;4.70;;
70780;SDS011;59514;48.810;2.134;2022-08-16T11:58:46;6.38;;;5.00;;
70780;SDS011;59514;48.810;2.134;2022-08-16T12:01:12;7.05;;;6.05;;
70780;SDS011;59514;48.810;2.134;2022-08-16T12:03:39;7.07;;;5.28;;
70780;SDS011;59514;48.810;2.134;2022-08-16T12:06:09;5.95;;;5.30;;
70780;SDS011;59514;48.810;2.134;2022-08-16T12:08:37;8.55;;;5.75;;
70780;SDS011;59514;48.810;2.134;2022-08-16T12:11:04;8.77;;;6.15;;
70780;SDS011;59514;48.810;2.134;2022-08-16T12:13:29;7.55;;;5.88;;
70780;SDS011;59514;48.810;2.134;2022-08-16T12:15:55;8.68;;;5.63;;
70780;SDS011;59514;48.810;2.134;2022-08-16T12:18:21;7.57;;;5.60;;
70780;SDS011;59514;48.810;2.134;2022-08-16T12:20:47;8.10;;;6.20;;
70780;SDS011;59514;48.810;2.134;2022-08-16T12:23:12;7.50;;;6.13;;
70780;SDS011;59514;48.810;2.134;2022-08-16T12:25:38;6.97;;;6.18;;
70780;SDS011;59514;48.810;2.134;2022-08-16T12:28:04;8.77;;;5.57;;
70780;SDS011;59514;48.810;2.134;2022-08-16T12:30:33;7.85;;;6.07;;
70780;SDS011;59514;48.810;2.134;2022-08-16T12:33:03;13.18;;;6.68;;
70780;SDS011;59514;48.810;2.134;2022-08-16T12:35:30;8.30;;;6.38;;
70780;SDS011;59514;48.810;2.134;2022-08-16T12:37:57;8.30;;;5.50;;
70780;SDS011;59514;48.810;2.134;2022-08-16T12:40:25;6.57;;;5.90;;
70780;SDS011;59514;48.810;2.134;2022-08-16T12:42:56;6.68;;;5.57;;
70780;SDS011;59514;48.810;2.134;2022-08-16T12:45:23;7.38;;;5.95;;
70780;SDS011;59514;48.810;2.134;2022-08-16T12:47:50;6.55;;;5.78;;
70780;SDS011;59514;48.810;2.134;2022-08-16T12:50:35;9.48;;;5.88;;
70780;SDS011;59514;48.810;2.134;2022-08-16T12:53:03;6.38;;;5.82;;
70780;SDS011;59514;48.810;2.134;2022-08-16T12:55:29;8.10;;;5.90;;
70780;SDS011;59514;48.810;2.134;2022-08-16T12:57:56;6.38;;;5.78;;
70780;SDS011;59514;48.810;2.134;2022-08-16T13:00:23;6.15;;;5.55;;
70780;SDS011;59514;48.810;2.134;2022-08-16T13:02:52;7.22;;;5.72;;
70780;SDS011;59514;48.810;2.134;2022-08-16T13:05:18;6.78;;;5.60;;
70780;SDS011;59514;48.810;2.134;2022-08-16T13:07:44;6.07;;;5.20;;
70780;SDS011;59514;48.810;2.134;2022-08-16T13:10:10;6.65;;;5.82;;
70780;SDS011;59514;48.810;2.134;2022-08-16T13:12:46;6.18;;;5.03;;
70780;SDS011;59514;48.810;2.134;2022-08-16T13:15:16;9.02;;;5.07;;
70780;SDS011;59514;48.810;2.134;2022-08-16T13:17:45;9.40;;;5.22;;
70780;SDS011;59514;48.810;2.134;2022-08-16T13:20:11;5.90;;;5.07;;
70780;SDS011;59514;48.810;2.134;2022-08-16T13:22:43;7.05;;;5.32;;
70780;SDS011;59514;48.810;2.134;2022-08-16T13:25:15;6.38;;;4.82;;
70780;SDS011;59514;48.810;2.134;2022-08-16T13:27:42;6.15;;;5.53;;
70780;SDS011;59514;48.810;2.134;2022-08-16T13:30:08;5.55;;;5.13;;
70780;SDS011;59514;48.810;2.134;2022-08-16T13:32:34;6.45;;;5.50;;
70780;SDS011;59514;48.810;2.134;2022-08-16T13:34:59;8.23;;;5.13;;
70780;SDS011;59514;48.810;2.134;2022-08-16T13:37:25;5.47;;;4.47;;
70780;SDS011;59514;48.810;2.134;2022-08-16T13:39:50;5.23;;;4.67;;
70780;SDS011;59514;48.810;2.134;2022-08-16T13:42:15;6.10;;;4.82;;
70780;SDS011;59514;48.810;2.134;2022-08-16T13:44:42;7.32;;;5.28;;
70780;SDS011;59514;48.810;2.134;2022-08-16T13:47:07;5.97;;;5.38;;
70780;SDS011;59514;48.810;2.134;2022-08-16T13:49:33;6.43;;;5.00;;
70780;SDS011;59514;48.810;2.134;2022-08-16T13:51:58;6.20;;;5.00;;
70780;SDS011;59514;48.810;2.134;2022-08-16T13:54:24;5.68;;;5.00;;
70780;SDS011;59514;48.810;2.134;2022-08-16T13:56:50;5.57;;;5.07;;
70780;SDS011;59514;48.810;2.134;2022-08-16T13:59:15;7.22;;;4.70;;
70780;SDS011;59514;48.810;2.134;2022-08-16T14:01:41;5.53;;;5.03;;
70780;SDS011;59514;48.810;2.134;2022-08-16T14:04:07;6.07;;;4.88;;
70780;SDS011;59514;48.810;2.134;2022-08-16T14:06:33;5.95;;;5.07;;
70780;SDS011;59514;48.810;2.134;2022-08-16T14:08:59;6.82;;;4.72;;
70780;SDS011;59514;48.810;2.134;2022-08-16T14:11:24;6.20;;;5.00;;
70780;SDS011;59514;48.810;2.134;2022-08-16T14:13:49;5.28;;;4.60;;
70780;SDS011;59514;48.810;2.134;2022-08-16T14:16:15;6.22;;;4.53;;
70780;SDS011;59514;48.810;2.134;2022-08-16T14:18:40;5.45;;;4.95;;
70780;SDS011;59514;48.810;2.134;2022-08-16T14:21:05;5.70;;;4.47;;
70780;SDS011;59514;48.810;2.134;2022-08-16T14:23:31;5.50;;;4.93;;
70780;SDS011;59514;48.810;2.134;2022-08-16T14:25:56;5.05;;;4.50;;
70780;SDS011;59514;48.810;2.134;2022-08-16T14:28:22;5.22;;;4.72;;
70780;SDS011;59514;48.810;2.134;2022-08-16T14:30:47;5.40;;;4.50;;
70780;SDS011;59514;48.810;2.134;2022-08-16T14:33:13;6.20;;;4.90;;
70780;SDS011;59514;48.810;2.134;2022-08-16T14:35:39;5.60;;;4.72;;
70780;SDS011;59514;48.810;2.134;2022-08-16T14:38:04;5.13;;;4.43;;